Terminal Aerodrome Forecast
Issued by NWS

Home | Current Version | Previous Version | Text Only | Print | Product List | Glossary On
Versions: 1 2 3 4 5 6 7 8 9 10 11 12 13 14 15 16 17 18 19 20 21 22 23 24 25 26
000
FTUS46 KSTO 251800 AAA
TAFSAC
TAF AMD
KSAC 251849Z 2519/2618 02003KT 1SM BR OVC002
     FM251900 34002KT 3SM BR BKN005
     FM252100 34002KT 4SM HZ SCT007
     FM252300 34005KT 4SM HZ SKC
     FM260600 VRB03KT 2SM BR BKN003=

USA.gov is the U.S. government's official web portal to all federal, state and local government web resources and services.